sensor_id;sensor_type;location;lat;lon;timestamp;P1;durP1;ratioP1;P2;durP2;ratioP2
27428;SDS011;14881;48.092;11.574;2023-03-01T00:02:24;36.03;;;22.90;;
27428;SDS011;14881;48.092;11.574;2023-03-01T00:04:52;39.28;;;23.65;;
27428;SDS011;14881;48.092;11.574;2023-03-01T00:07:20;33.38;;;22.30;;
27428;SDS011;14881;48.092;11.574;2023-03-01T00:09:49;36.58;;;23.02;;
27428;SDS011;14881;48.092;11.574;2023-03-01T00:12:16;37.05;;;22.70;;
27428;SDS011;14881;48.092;11.574;2023-03-01T00:14:44;34.38;;;21.52;;
27428;SDS011;14881;48.092;11.574;2023-03-01T00:17:12;36.83;;;22.60;;
27428;SDS011;14881;48.092;11.574;2023-03-01T00:19:40;36.05;;;23.55;;
27428;SDS011;14881;48.092;11.574;2023-03-01T00:22:08;35.38;;;22.42;;
27428;SDS011;14881;48.092;11.574;2023-03-01T00:24:35;36.22;;;22.75;;
27428;SDS011;14881;48.092;11.574;2023-03-01T00:27:05;34.70;;;22.25;;
27428;SDS011;14881;48.092;11.574;2023-03-01T00:29:33;35.53;;;23.17;;
27428;SDS011;14881;48.092;11.574;2023-03-01T00:32:01;35.10;;;22.98;;
27428;SDS011;14881;48.092;11.574;2023-03-01T00:34:28;33.67;;;22.20;;
27428;SDS011;14881;48.092;11.574;2023-03-01T00:36:56;36.83;;;22.95;;
27428;SDS011;14881;48.092;11.574;2023-03-01T00:39:31;38.10;;;24.38;;
27428;SDS011;14881;48.092;11.574;2023-03-01T00:41:59;39.03;;;23.35;;
27428;SDS011;14881;48.092;11.574;2023-03-01T00:44:28;38.33;;;22.98;;
27428;SDS011;14881;48.092;11.574;2023-03-01T00:46:56;35.78;;;23.65;;
27428;SDS011;14881;48.092;11.574;2023-03-01T00:49:24;36.72;;;22.08;;
27428;SDS011;14881;48.092;11.574;2023-03-01T00:51:53;40.40;;;23.73;;
27428;SDS011;14881;48.092;11.574;2023-03-01T00:54:21;41.38;;;23.35;;
27428;SDS011;14881;48.092;11.574;2023-03-01T00:56:49;38.53;;;22.80;;
27428;SDS011;14881;48.092;11.574;2023-03-01T00:59:17;34.97;;;22.67;;
27428;SDS011;14881;48.092;11.574;2023-03-01T01:01:46;37.40;;;22.25;;
27428;SDS011;14881;48.092;11.574;2023-03-01T01:04:14;39.83;;;24.23;;
27428;SDS011;14881;48.092;11.574;2023-03-01T01:06:43;36.65;;;23.23;;
27428;SDS011;14881;48.092;11.574;2023-03-01T01:09:13;33.60;;;22.58;;
27428;SDS011;14881;48.092;11.574;2023-03-01T01:11:44;38.50;;;23.05;;
27428;SDS011;14881;48.092;11.574;2023-03-01T01:14:13;40.80;;;24.33;;
27428;SDS011;14881;48.092;11.574;2023-03-01T01:16:41;33.00;;;22.10;;
27428;SDS011;14881;48.092;11.574;2023-03-01T01:19:11;36.58;;;24.23;;
27428;SDS011;14881;48.092;11.574;2023-03-01T01:21:40;32.97;;;20.77;;
27428;SDS011;14881;48.092;11.574;2023-03-01T01:24:09;35.47;;;22.52;;
27428;SDS011;14881;48.092;11.574;2023-03-01T01:26:37;35.25;;;22.10;;
27428;SDS011;14881;48.092;11.574;2023-03-01T01:29:05;38.28;;;23.00;;
27428;SDS011;14881;48.092;11.574;2023-03-01T01:31:34;39.00;;;22.40;;
27428;SDS011;14881;48.092;11.574;2023-03-01T01:34:04;36.90;;;22.70;;
27428;SDS011;14881;48.092;11.574;2023-03-01T01:36:34;35.25;;;21.63;;
27428;SDS011;14881;48.092;11.574;2023-03-01T01:39:03;34.70;;;22.35;;
27428;SDS011;14881;48.092;11.574;2023-03-01T01:41:31;36.63;;;22.77;;
27428;SDS011;14881;48.092;11.574;2023-03-01T01:44:16;42.38;;;23.27;;
27428;SDS011;14881;48.092;11.574;2023-03-01T01:46:50;42.40;;;22.45;;
27428;SDS011;14881;48.092;11.574;2023-03-01T01:49:25;37.17;;;22.90;;
27428;SDS011;14881;48.092;11.574;2023-03-01T01:51:59;33.80;;;21.85;;
27428;SDS011;14881;48.092;11.574;2023-03-01T01:54:35;36.78;;;22.70;;
27428;SDS011;14881;48.092;11.574;2023-03-01T01:57:09;37.70;;;23.85;;
27428;SDS011;14881;48.092;11.574;2023-03-01T01:59:42;34.40;;;22.90;;
27428;SDS011;14881;48.092;11.574;2023-03-01T02:02:13;35.30;;;22.85;;
27428;SDS011;14881;48.092;11.574;2023-03-01T02:04:41;37.40;;;22.60;;
27428;SDS011;14881;48.092;11.574;2023-03-01T02:07:13;38.83;;;23.75;;
27428;SDS011;14881;48.092;11.574;2023-03-01T02:09:45;36.00;;;23.90;;
27428;SDS011;14881;48.092;11.574;2023-03-01T02:12:14;35.80;;;21.73;;
27428;SDS011;14881;48.092;11.574;2023-03-01T02:14:44;38.45;;;22.67;;
27428;SDS011;14881;48.092;11.574;2023-03-01T02:17:12;36.72;;;23.00;;
27428;SDS011;14881;48.092;11.574;2023-03-01T02:19:45;34.50;;;23.73;;
27428;SDS011;14881;48.092;11.574;2023-03-01T02:22:24;37.03;;;23.00;;
27428;SDS011;14881;48.092;11.574;2023-03-01T02:24:58;34.13;;;22.40;;
27428;SDS011;14881;48.092;11.574;2023-03-01T02:27:38;38.83;;;23.33;;
27428;SDS011;14881;48.092;11.574;2023-03-01T02:30:12;35.00;;;23.05;;
27428;SDS011;14881;48.092;11.574;2023-03-01T02:32:40;35.85;;;23.23;;
27428;SDS011;14881;48.092;11.574;2023-03-01T02:35:11;36.15;;;22.80;;
27428;SDS011;14881;48.092;11.574;2023-03-01T02:37:42;38.63;;;23.17;;
27428;SDS011;14881;48.092;11.574;2023-03-01T02:40:12;36.30;;;23.20;;
27428;SDS011;14881;48.092;11.574;2023-03-01T02:42:45;35.40;;;22.48;;
27428;SDS011;14881;48.092;11.574;2023-03-01T02:45:18;36.75;;;22.13;;
27428;SDS011;14881;48.092;11.574;2023-03-01T02:47:46;38.03;;;23.80;;
27428;SDS011;14881;48.092;11.574;2023-03-01T02:50:18;36.72;;;22.95;;
27428;SDS011;14881;48.092;11.574;2023-03-01T02:52:55;42.35;;;23.65;;
27428;SDS011;14881;48.092;11.574;2023-03-01T02:55:29;36.78;;;22.95;;
27428;SDS011;14881;48.092;11.574;2023-03-01T02:57:56;35.67;;;22.23;;
27428;SDS011;14881;48.092;11.574;2023-03-01T03:00:26;37.67;;;22.65;;
27428;SDS011;14881;48.092;11.574;2023-03-01T03:05:28;38.45;;;23.10;;
27428;SDS011;14881;48.092;11.574;2023-03-01T03:07:57;34.63;;;22.90;;
27428;SDS011;14881;48.092;11.574;2023-03-01T03:10:28;37.58;;;22.83;;
27428;SDS011;14881;48.092;11.574;2023-03-01T03:12:58;35.88;;;23.15;;
27428;SDS011;14881;48.092;11.574;2023-03-01T03:15:29;35.40;;;22.77;;
27428;SDS011;14881;48.092;11.574;2023-03-01T03:17:58;38.03;;;23.48;;
27428;SDS011;14881;48.092;11.574;2023-03-01T03:20:29;37.47;;;24.13;;
27428;SDS011;14881;48.092;11.574;2023-03-01T03:22:58;37.45;;;23.67;;
27428;SDS011;14881;48.092;11.574;2023-03-01T03:25:26;36.05;;;23.10;;
27428;SDS011;14881;48.092;11.574;2023-03-01T03:27:55;36.00;;;23.42;;
27428;SDS011;14881;48.092;11.574;2023-03-01T03:30:25;37.65;;;23.10;;
27428;SDS011;14881;48.092;11.574;2023-03-01T03:32:57;36.67;;;22.95;;
27428;SDS011;14881;48.092;11.574;2023-03-01T03:35:26;37.28;;;22.65;;
27428;SDS011;14881;48.092;11.574;2023-03-01T03:37:57;38.35;;;23.65;;
27428;SDS011;14881;48.092;11.574;2023-03-01T03:40:33;39.00;;;23.90;;
27428;SDS011;14881;48.092;11.574;2023-03-01T03:43:04;37.45;;;24.00;;
27428;SDS011;14881;48.092;11.574;2023-03-01T03:45:35;39.92;;;23.88;;
27428;SDS011;14881;48.092;11.574;2023-03-01T03:48:07;36.72;;;23.60;;
27428;SDS011;14881;48.092;11.574;2023-03-01T03:50:36;37.40;;;23.27;;
27428;SDS011;14881;48.092;11.574;2023-03-01T03:53:06;37.53;;;23.48;;
27428;SDS011;14881;48.092;11.574;2023-03-01T03:55:34;39.50;;;23.50;;
27428;SDS011;14881;48.092;11.574;2023-03-01T03:58:05;38.28;;;23.40;;
27428;SDS011;14881;48.092;11.574;2023-03-01T04:00:38;35.38;;;23.38;;
27428;SDS011;14881;48.092;11.574;2023-03-01T04:03:10;39.17;;;23.77;;
27428;SDS011;14881;48.092;11.574;2023-03-01T04:05:39;37.05;;;23.55;;
27428;SDS011;14881;48.092;11.574;2023-03-01T04:08:08;37.70;;;23.35;;
27428;SDS011;14881;48.092;11.574;2023-03-01T04:10:37;37.28;;;23.98;;
27428;SDS011;14881;48.092;11.574;2023-03-01T04:13:06;38.67;;;23.58;;
27428;SDS011;14881;48.092;11.574;2023-03-01T04:15:39;36.75;;;24.00;;
27428;SDS011;14881;48.092;11.574;2023-03-01T04:18:11;37.63;;;22.75;;
27428;SDS011;14881;48.092;11.574;2023-03-01T04:20:40;38.45;;;23.88;;
27428;SDS011;14881;48.092;11.574;2023-03-01T04:23:11;36.78;;;23.85;;
27428;SDS011;14881;48.092;11.574;2023-03-01T04:25:42;38.13;;;24.08;;
27428;SDS011;14881;48.092;11.574;2023-03-01T04:28:15;40.40;;;24.60;;
27428;SDS011;14881;48.092;11.574;2023-03-01T04:30:43;39.00;;;24.02;;
27428;SDS011;14881;48.092;11.574;2023-03-01T04:33:12;43.30;;;23.88;;
27428;SDS011;14881;48.092;11.574;2023-03-01T04:35:40;37.75;;;23.83;;
27428;SDS011;14881;48.092;11.574;2023-03-01T04:38:08;38.47;;;24.10;;
27428;SDS011;14881;48.092;11.574;2023-03-01T04:40:37;39.05;;;23.92;;
27428;SDS011;14881;48.092;11.574;2023-03-01T04:43:05;37.95;;;22.83;;
27428;SDS011;14881;48.092;11.574;2023-03-01T04:45:32;39.53;;;24.23;;
27428;SDS011;14881;48.092;11.574;2023-03-01T04:48:02;39.08;;;24.67;;
27428;SDS011;14881;48.092;11.574;2023-03-01T04:50:31;36.13;;;23.25;;
27428;SDS011;14881;48.092;11.574;2023-03-01T04:53:00;41.60;;;23.27;;
27428;SDS011;14881;48.092;11.574;2023-03-01T04:55:28;36.55;;;23.08;;
27428;SDS011;14881;48.092;11.574;2023-03-01T04:57:56;38.53;;;24.00;;
27428;SDS011;14881;48.092;11.574;2023-03-01T05:00:24;41.78;;;23.80;;
27428;SDS011;14881;48.092;11.574;2023-03-01T05:02:53;39.92;;;25.15;;
27428;SDS011;14881;48.092;11.574;2023-03-01T05:05:23;39.88;;;25.20;;
27428;SDS011;14881;48.092;11.574;2023-03-01T05:07:57;45.13;;;25.58;;
27428;SDS011;14881;48.092;11.574;2023-03-01T05:10:27;37.30;;;24.08;;
27428;SDS011;14881;48.092;11.574;2023-03-01T05:12:56;39.63;;;24.50;;
27428;SDS011;14881;48.092;11.574;2023-03-01T05:15:24;41.33;;;24.80;;
27428;SDS011;14881;48.092;11.574;2023-03-01T05:17:54;39.65;;;24.88;;
27428;SDS011;14881;48.092;11.574;2023-03-01T05:20:25;38.10;;;24.02;;
27428;SDS011;14881;48.092;11.574;2023-03-01T05:22:54;37.10;;;22.48;;
27428;SDS011;14881;48.092;11.574;2023-03-01T05:25:26;36.10;;;23.05;;
27428;SDS011;14881;48.092;11.574;2023-03-01T05:27:59;36.87;;;23.63;;
27428;SDS011;14881;48.092;11.574;2023-03-01T05:30:30;40.60;;;24.48;;
27428;SDS011;14881;48.092;11.574;2023-03-01T05:32:59;42.78;;;25.58;;
27428;SDS011;14881;48.092;11.574;2023-03-01T05:35:27;37.97;;;24.23;;
27428;SDS011;14881;48.092;11.574;2023-03-01T05:37:58;38.78;;;24.42;;
27428;SDS011;14881;48.092;11.574;2023-03-01T05:40:28;40.78;;;24.75;;
27428;SDS011;14881;48.092;11.574;2023-03-01T05:42:56;40.78;;;24.30;;
27428;SDS011;14881;48.092;11.574;2023-03-01T05:45:24;44.00;;;25.88;;
27428;SDS011;14881;48.092;11.574;2023-03-01T05:47:53;39.50;;;24.35;;
27428;SDS011;14881;48.092;11.574;2023-03-01T05:50:22;41.90;;;25.35;;
27428;SDS011;14881;48.092;11.574;2023-03-01T05:52:56;40.85;;;24.40;;
27428;SDS011;14881;48.092;11.574;2023-03-01T05:55:28;38.85;;;25.20;;
27428;SDS011;14881;48.092;11.574;2023-03-01T05:57:58;39.35;;;24.20;;
27428;SDS011;14881;48.092;11.574;2023-03-01T06:00:27;40.05;;;25.13;;
27428;SDS011;14881;48.092;11.574;2023-03-01T06:02:56;35.97;;;24.15;;
27428;SDS011;14881;48.092;11.574;2023-03-01T06:05:25;42.28;;;25.77;;
27428;SDS011;14881;48.092;11.574;2023-03-01T06:07:54;44.30;;;24.63;;
27428;SDS011;14881;48.092;11.574;2023-03-01T06:10:22;40.00;;;24.48;;
27428;SDS011;14881;48.092;11.574;2023-03-01T06:12:51;39.55;;;24.65;;
27428;SDS011;14881;48.092;11.574;2023-03-01T06:15:19;40.50;;;26.17;;
27428;SDS011;14881;48.092;11.574;2023-03-01T06:17:47;39.40;;;25.10;;
27428;SDS011;14881;48.092;11.574;2023-03-01T06:20:16;41.47;;;25.40;;
27428;SDS011;14881;48.092;11.574;2023-03-01T06:22:46;39.83;;;24.92;;
27428;SDS011;14881;48.092;11.574;2023-03-01T06:25:16;43.58;;;24.52;;
27428;SDS011;14881;48.092;11.574;2023-03-01T06:27:45;36.88;;;24.05;;
27428;SDS011;14881;48.092;11.574;2023-03-01T06:30:17;37.00;;;23.40;;
27428;SDS011;14881;48.092;11.574;2023-03-01T06:32:46;42.65;;;25.38;;
27428;SDS011;14881;48.092;11.574;2023-03-01T06:35:15;43.20;;;25.05;;
27428;SDS011;14881;48.092;11.574;2023-03-01T06:37:44;39.65;;;25.52;;
27428;SDS011;14881;48.092;11.574;2023-03-01T06:40:12;38.13;;;24.45;;
27428;SDS011;14881;48.092;11.574;2023-03-01T06:42:42;42.13;;;25.52;;
27428;SDS011;14881;48.092;11.574;2023-03-01T06:45:11;42.30;;;24.67;;
27428;SDS011;14881;48.092;11.574;2023-03-01T06:47:40;45.60;;;24.35;;
27428;SDS011;14881;48.092;11.574;2023-03-01T06:50:08;46.42;;;25.85;;
27428;SDS011;14881;48.092;11.574;2023-03-01T06:52:37;40.33;;;24.40;;
27428;SDS011;14881;48.092;11.574;2023-03-01T06:55:05;38.05;;;23.88;;
27428;SDS011;14881;48.092;11.574;2023-03-01T06:57:33;43.58;;;25.80;;
27428;SDS011;14881;48.092;11.574;2023-03-01T07:00:01;42.67;;;24.15;;
27428;SDS011;14881;48.092;11.574;2023-03-01T07:02:30;38.83;;;23.70;;
27428;SDS011;14881;48.092;11.574;2023-03-01T07:04:59;45.22;;;25.38;;
27428;SDS011;14881;48.092;11.574;2023-03-01T07:07:27;46.58;;;24.92;;
27428;SDS011;14881;48.092;11.574;2023-03-01T07:09:55;51.35;;;25.25;;
27428;SDS011;14881;48.092;11.574;2023-03-01T07:12:23;45.58;;;26.40;;
27428;SDS011;14881;48.092;11.574;2023-03-01T07:14:50;38.85;;;23.63;;
27428;SDS011;14881;48.092;11.574;2023-03-01T07:17:18;42.50;;;23.92;;
27428;SDS011;14881;48.092;11.574;2023-03-01T07:19:46;39.38;;;24.38;;
27428;SDS011;14881;48.092;11.574;2023-03-01T07:22:15;38.72;;;23.92;;
27428;SDS011;14881;48.092;11.574;2023-03-01T07:24:43;42.60;;;26.13;;
27428;SDS011;14881;48.092;11.574;2023-03-01T07:27:11;39.63;;;23.27;;
27428;SDS011;14881;48.092;11.574;2023-03-01T07:29:38;43.13;;;24.63;;
27428;SDS011;14881;48.092;11.574;2023-03-01T07:32:06;39.15;;;23.98;;
27428;SDS011;14881;48.092;11.574;2023-03-01T07:34:34;41.15;;;24.65;;
27428;SDS011;14881;48.092;11.574;2023-03-01T07:37:04;41.72;;;25.48;;
27428;SDS011;14881;48.092;11.574;2023-03-01T07:39:33;40.97;;;23.23;;
27428;SDS011;14881;48.092;11.574;2023-03-01T07:42:00;40.70;;;23.85;;
27428;SDS011;14881;48.092;11.574;2023-03-01T07:44:28;39.58;;;24.60;;
27428;SDS011;14881;48.092;11.574;2023-03-01T07:46:56;45.85;;;23.90;;
27428;SDS011;14881;48.092;11.574;2023-03-01T07:49:24;39.67;;;25.05;;
27428;SDS011;14881;48.092;11.574;2023-03-01T07:51:53;43.13;;;26.25;;
27428;SDS011;14881;48.092;11.574;2023-03-01T07:54:21;47.47;;;26.38;;
27428;SDS011;14881;48.092;11.574;2023-03-01T07:56:50;39.47;;;24.45;;
27428;SDS011;14881;48.092;11.574;2023-03-01T07:59:18;45.20;;;24.90;;
27428;SDS011;14881;48.092;11.574;2023-03-01T08:01:46;43.55;;;25.77;;
27428;SDS011;14881;48.092;11.574;2023-03-01T08:04:14;50.22;;;28.67;;
27428;SDS011;14881;48.092;11.574;2023-03-01T08:06:41;43.22;;;27.30;;
27428;SDS011;14881;48.092;11.574;2023-03-01T08:09:09;45.47;;;25.77;;
27428;SDS011;14881;48.092;11.574;2023-03-01T08:11:37;38.83;;;23.85;;
27428;SDS011;14881;48.092;11.574;2023-03-01T08:14:06;46.35;;;24.20;;
27428;SDS011;14881;48.092;11.574;2023-03-01T08:16:34;39.53;;;23.38;;
27428;SDS011;14881;48.092;11.574;2023-03-01T08:19:05;43.28;;;25.33;;
27428;SDS011;14881;48.092;11.574;2023-03-01T08:21:33;42.28;;;25.58;;
27428;SDS011;14881;48.092;11.574;2023-03-01T08:24:02;38.65;;;24.33;;
27428;SDS011;14881;48.092;11.574;2023-03-01T08:26:30;44.53;;;24.85;;
27428;SDS011;14881;48.092;11.574;2023-03-01T08:28:59;41.72;;;25.13;;
27428;SDS011;14881;48.092;11.574;2023-03-01T08:31:30;42.55;;;24.20;;
27428;SDS011;14881;48.092;11.574;2023-03-01T08:34:00;42.53;;;24.88;;
27428;SDS011;14881;48.092;11.574;2023-03-01T08:36:32;40.53;;;24.13;;
27428;SDS011;14881;48.092;11.574;2023-03-01T08:39:03;41.50;;;23.90;;
27428;SDS011;14881;48.092;11.574;2023-03-01T08:41:31;38.50;;;23.35;;
27428;SDS011;14881;48.092;11.574;2023-03-01T08:43:59;39.63;;;24.25;;
27428;SDS011;14881;48.092;11.574;2023-03-01T08:46:27;38.08;;;24.35;;
27428;SDS011;14881;48.092;11.574;2023-03-01T08:49:00;41.22;;;25.23;;
27428;SDS011;14881;48.092;11.574;2023-03-01T08:51:31;41.10;;;24.00;;
27428;SDS011;14881;48.092;11.574;2023-03-01T08:54:02;45.03;;;23.73;;
27428;SDS011;14881;48.092;11.574;2023-03-01T08:56:30;39.95;;;24.63;;
27428;SDS011;14881;48.092;11.574;2023-03-01T08:58:58;42.47;;;24.35;;
27428;SDS011;14881;48.092;11.574;2023-03-01T09:01:27;39.00;;;24.02;;
27428;SDS011;14881;48.092;11.574;2023-03-01T09:03:54;40.53;;;24.85;;
27428;SDS011;14881;48.092;11.574;2023-03-01T09:06:24;42.38;;;25.15;;
27428;SDS011;14881;48.092;11.574;2023-03-01T09:08:52;38.83;;;23.95;;
27428;SDS011;14881;48.092;11.574;2023-03-01T09:11:22;37.05;;;23.10;;
27428;SDS011;14881;48.092;11.574;2023-03-01T09:13:50;42.13;;;24.17;;
27428;SDS011;14881;48.092;11.574;2023-03-01T09:16:18;40.67;;;24.92;;
27428;SDS011;14881;48.092;11.574;2023-03-01T09:18:48;40.05;;;25.27;;
27428;SDS011;14881;48.092;11.574;2023-03-01T09:21:18;41.58;;;24.13;;
27428;SDS011;14881;48.092;11.574;2023-03-01T09:24:05;39.47;;;23.40;;
27428;SDS011;14881;48.092;11.574;2023-03-01T09:26:34;41.80;;;25.23;;
27428;SDS011;14881;48.092;11.574;2023-03-01T09:29:01;45.83;;;24.52;;
27428;SDS011;14881;48.092;11.574;2023-03-01T09:31:29;41.97;;;26.73;;
27428;SDS011;14881;48.092;11.574;2023-03-01T09:33:57;45.08;;;25.38;;
27428;SDS011;14881;48.092;11.574;2023-03-01T09:36:26;41.50;;;24.35;;
27428;SDS011;14881;48.092;11.574;2023-03-01T09:38:55;43.92;;;25.45;;
27428;SDS011;14881;48.092;11.574;2023-03-01T09:41:42;39.80;;;24.00;;
27428;SDS011;14881;48.092;11.574;2023-03-01T09:44:18;40.65;;;24.70;;
27428;SDS011;14881;48.092;11.574;2023-03-01T09:46:55;37.80;;;24.02;;
27428;SDS011;14881;48.092;11.574;2023-03-01T09:49:24;41.05;;;24.73;;
27428;SDS011;14881;48.092;11.574;2023-03-01T09:51:56;43.45;;;26.27;;
27428;SDS011;14881;48.092;11.574;2023-03-01T09:54:29;41.20;;;24.05;;
27428;SDS011;14881;48.092;11.574;2023-03-01T09:57:11;40.30;;;25.70;;
27428;SDS011;14881;48.092;11.574;2023-03-01T09:59:49;42.70;;;27.38;;
27428;SDS011;14881;48.092;11.574;2023-03-01T10:02:28;47.63;;;26.20;;
27428;SDS011;14881;48.092;11.574;2023-03-01T10:05:05;40.13;;;25.33;;
27428;SDS011;14881;48.092;11.574;2023-03-01T10:07:47;39.17;;;24.83;;
27428;SDS011;14881;48.092;11.574;2023-03-01T10:10:24;41.28;;;25.02;;
27428;SDS011;14881;48.092;11.574;2023-03-01T10:12:57;41.15;;;24.83;;
27428;SDS011;14881;48.092;11.574;2023-03-01T10:15:32;44.85;;;25.30;;
27428;SDS011;14881;48.092;11.574;2023-03-01T10:18:04;45.83;;;26.30;;
27428;SDS011;14881;48.092;11.574;2023-03-01T10:20:41;36.30;;;24.27;;
27428;SDS011;14881;48.092;11.574;2023-03-01T10:23:13;42.80;;;25.73;;
27428;SDS011;14881;48.092;11.574;2023-03-01T10:25:44;39.60;;;25.30;;
27428;SDS011;14881;48.092;11.574;2023-03-01T10:28:24;38.13;;;24.13;;
27428;SDS011;14881;48.092;11.574;2023-03-01T10:30:57;38.50;;;23.55;;
27428;SDS011;14881;48.092;11.574;2023-03-01T10:33:26;41.67;;;24.48;;
27428;SDS011;14881;48.092;11.574;2023-03-01T10:35:56;38.33;;;23.40;;
27428;SDS011;14881;48.092;11.574;2023-03-01T10:38:24;37.30;;;23.90;;
27428;SDS011;14881;48.092;11.574;2023-03-01T10:40:53;41.15;;;24.77;;
27428;SDS011;14881;48.092;11.574;2023-03-01T10:43:24;37.67;;;23.15;;
27428;SDS011;14881;48.092;11.574;2023-03-01T10:45:54;38.78;;;22.73;;
27428;SDS011;14881;48.092;11.574;2023-03-01T10:48:22;32.17;;;23.05;;
27428;SDS011;14881;48.092;11.574;2023-03-01T10:51:05;38.67;;;23.65;;
27428;SDS011;14881;48.092;11.574;2023-03-01T10:53:35;37.35;;;22.63;;
27428;SDS011;14881;48.092;11.574;2023-03-01T10:56:05;38.20;;;23.35;;
27428;SDS011;14881;48.092;11.574;2023-03-01T10:58:36;35.03;;;22.30;;
27428;SDS011;14881;48.092;11.574;2023-03-01T11:01:06;38.45;;;25.48;;
27428;SDS011;14881;48.092;11.574;2023-03-01T11:04:03;38.03;;;25.45;;
27428;SDS011;14881;48.092;11.574;2023-03-01T11:06:37;31.95;;;21.13;;
27428;SDS011;14881;48.092;11.574;2023-03-01T11:09:14;34.40;;;22.05;;
27428;SDS011;14881;48.092;11.574;2023-03-01T11:11:42;39.40;;;23.52;;
27428;SDS011;14881;48.092;11.574;2023-03-01T11:14:14;36.75;;;23.83;;
27428;SDS011;14881;48.092;11.574;2023-03-01T11:16:59;34.78;;;25.50;;
27428;SDS011;14881;48.092;11.574;2023-03-01T11:19:32;35.45;;;22.48;;
27428;SDS011;14881;48.092;11.574;2023-03-01T11:22:02;34.75;;;23.48;;
27428;SDS011;14881;48.092;11.574;2023-03-01T11:24:34;32.67;;;22.45;;
27428;SDS011;14881;48.092;11.574;2023-03-01T11:27:15;34.13;;;24.13;;
27428;SDS011;14881;48.092;11.574;2023-03-01T11:29:48;36.50;;;24.73;;
27428;SDS011;14881;48.092;11.574;2023-03-01T11:32:20;31.88;;;22.25;;
27428;SDS011;14881;48.092;11.574;2023-03-01T11:34:54;35.38;;;23.42;;
27428;SDS011;14881;48.092;11.574;2023-03-01T11:37:28;37.23;;;24.20;;
27428;SDS011;14881;48.092;11.574;2023-03-01T11:40:10;34.95;;;23.55;;
27428;SDS011;14881;48.092;11.574;2023-03-01T11:42:55;34.25;;;24.63;;
27428;SDS011;14881;48.092;11.574;2023-03-01T11:45:32;34.10;;;25.13;;
27428;SDS011;14881;48.092;11.574;2023-03-01T11:48:14;33.42;;;24.38;;
27428;SDS011;14881;48.092;11.574;2023-03-01T11:51:02;33.35;;;24.05;;
27428;SDS011;14881;48.092;11.574;2023-03-01T11:53:42;33.60;;;23.85;;
27428;SDS011;14881;48.092;11.574;2023-03-01T11:56:25;36.47;;;24.27;;
27428;SDS011;14881;48.092;11.574;2023-03-01T11:59:08;35.67;;;24.75;;
27428;SDS011;14881;48.092;11.574;2023-03-01T12:01:57;33.88;;;23.50;;
27428;SDS011;14881;48.092;11.574;2023-03-01T12:04:57;36.83;;;23.25;;
27428;SDS011;14881;48.092;11.574;2023-03-01T12:07:46;35.10;;;25.23;;
27428;SDS011;14881;48.092;11.574;2023-03-01T12:10:22;35.27;;;24.90;;
27428;SDS011;14881;48.092;11.574;2023-03-01T12:15:57;36.13;;;25.48;;
27428;SDS011;14881;48.092;11.574;2023-03-01T12:18:52;35.17;;;23.85;;
27428;SDS011;14881;48.092;11.574;2023-03-01T12:21:30;36.83;;;25.00;;
27428;SDS011;14881;48.092;11.574;2023-03-01T12:24:21;35.90;;;25.38;;
27428;SDS011;14881;48.092;11.574;2023-03-01T12:27:07;42.53;;;26.30;;
27428;SDS011;14881;48.092;11.574;2023-03-01T12:29:49;36.05;;;25.23;;
27428;SDS011;14881;48.092;11.574;2023-03-01T12:32:24;38.90;;;26.50;;
27428;SDS011;14881;48.092;11.574;2023-03-01T12:35:09;36.47;;;26.17;;
27428;SDS011;14881;48.092;11.574;2023-03-01T12:37:53;35.00;;;25.70;;
27428;SDS011;14881;48.092;11.574;2023-03-01T12:40:33;36.08;;;26.75;;
27428;SDS011;14881;48.092;11.574;2023-03-01T12:43:20;39.75;;;26.77;;
27428;SDS011;14881;48.092;11.574;2023-03-01T12:46:00;38.45;;;26.65;;
27428;SDS011;14881;48.092;11.574;2023-03-01T12:48:37;39.67;;;26.38;;
27428;SDS011;14881;48.092;11.574;2023-03-01T12:51:12;38.28;;;26.25;;
27428;SDS011;14881;48.092;11.574;2023-03-01T12:53:43;37.42;;;25.60;;
27428;SDS011;14881;48.092;11.574;2023-03-01T12:56:15;35.35;;;26.20;;
27428;SDS011;14881;48.092;11.574;2023-03-01T12:58:50;35.78;;;25.92;;
27428;SDS011;14881;48.092;11.574;2023-03-01T13:01:28;36.13;;;26.80;;
27428;SDS011;14881;48.092;11.574;2023-03-01T13:04:14;37.03;;;26.30;;
27428;SDS011;14881;48.092;11.574;2023-03-01T13:06:55;38.88;;;27.58;;
27428;SDS011;14881;48.092;11.574;2023-03-01T13:09:31;38.40;;;26.83;;
27428;SDS011;14881;48.092;11.574;2023-03-01T13:12:03;35.63;;;25.20;;
27428;SDS011;14881;48.092;11.574;2023-03-01T13:14:53;38.03;;;25.98;;
27428;SDS011;14881;48.092;11.574;2023-03-01T13:17:40;35.97;;;26.02;;
27428;SDS011;14881;48.092;11.574;2023-03-01T13:20:13;36.75;;;26.42;;
27428;SDS011;14881;48.092;11.574;2023-03-01T13:22:44;39.80;;;28.02;;
27428;SDS011;14881;48.092;11.574;2023-03-01T13:25:20;37.80;;;26.30;;
27428;SDS011;14881;48.092;11.574;2023-03-01T13:30:58;35.50;;;26.38;;
27428;SDS011;14881;48.092;11.574;2023-03-01T13:33:42;36.08;;;25.63;;
27428;SDS011;14881;48.092;11.574;2023-03-01T13:39:28;37.15;;;26.95;;
27428;SDS011;14881;48.092;11.574;2023-03-01T13:42:01;39.08;;;26.90;;
27428;SDS011;14881;48.092;11.574;2023-03-01T13:44:30;35.05;;;25.02;;
27428;SDS011;14881;48.092;11.574;2023-03-01T13:47:03;35.10;;;25.45;;
27428;SDS011;14881;48.092;11.574;2023-03-01T13:49:47;37.03;;;25.25;;
27428;SDS011;14881;48.092;11.574;2023-03-01T13:52:23;33.90;;;25.25;;
27428;SDS011;14881;48.092;11.574;2023-03-01T13:55:16;34.17;;;25.13;;
27428;SDS011;14881;48.092;11.574;2023-03-01T13:57:48;35.88;;;25.33;;
27428;SDS011;14881;48.092;11.574;2023-03-01T14:00:30;36.88;;;26.20;;
27428;SDS011;14881;48.092;11.574;2023-03-01T14:03:04;37.13;;;25.50;;
27428;SDS011;14881;48.092;11.574;2023-03-01T14:05:42;34.75;;;25.73;;
27428;SDS011;14881;48.092;11.574;2023-03-01T14:08:38;38.25;;;26.52;;
27428;SDS011;14881;48.092;11.574;2023-03-01T14:11:19;35.65;;;26.15;;
27428;SDS011;14881;48.092;11.574;2023-03-01T14:14:22;39.78;;;27.17;;
27428;SDS011;14881;48.092;11.574;2023-03-01T14:17:18;35.55;;;25.00;;
27428;SDS011;14881;48.092;11.574;2023-03-01T14:20:09;36.03;;;25.55;;
27428;SDS011;14881;48.092;11.574;2023-03-01T14:22:42;33.92;;;24.35;;
27428;SDS011;14881;48.092;11.574;2023-03-01T14:25:20;34.92;;;25.23;;
27428;SDS011;14881;48.092;11.574;2023-03-01T14:27:56;35.30;;;26.42;;
27428;SDS011;14881;48.092;11.574;2023-03-01T14:30:31;38.67;;;25.90;;
27428;SDS011;14881;48.092;11.574;2023-03-01T14:33:02;35.90;;;25.98;;
27428;SDS011;14881;48.092;11.574;2023-03-01T14:35:32;35.65;;;25.33;;
27428;SDS011;14881;48.092;11.574;2023-03-01T14:38:02;35.60;;;24.45;;
27428;SDS011;14881;48.092;11.574;2023-03-01T14:40:32;38.92;;;25.25;;
27428;SDS011;14881;48.092;11.574;2023-03-01T14:43:13;37.35;;;25.20;;
27428;SDS011;14881;48.092;11.574;2023-03-01T14:45:48;35.40;;;25.27;;
27428;SDS011;14881;48.092;11.574;2023-03-01T14:48:18;39.95;;;25.10;;
27428;SDS011;14881;48.092;11.574;2023-03-01T14:50:46;38.75;;;25.30;;